Terminal Aerodrome Forecast
Issued by NWS Grand Rapids, MI

Home | Current Version | Previous Version | Text Only | Print | Product List | Glossary On
Versions: 1 2 3 4 5 6 7 8 9 10 11 12 13 14 15 16 17 18 19
841
FTUS43 KGRR 022330
TAFGRR
TAF
KGRR 022330Z 0300/0324 02004KT P6SM BKN050
     FM030400 VRB03KT P6SM SCT250
     FM031700 25012KT P6SM BKN250=

USA.gov is the U.S. government's official web portal to all federal, state and local government web resources and services.